sensor_id;sensor_type;location;lat;lon;timestamp;temperature;humidity
57566;DHT22;63999;43.882;-0.310;2022-12-18T00:01:18;6.20;81.20
57566;DHT22;63999;43.882;-0.310;2022-12-18T00:03:45;6.20;81.20
57566;DHT22;63999;43.882;-0.310;2022-12-18T00:06:11;6.20;81.20
57566;DHT22;63999;43.882;-0.310;2022-12-18T00:08:37;6.20;81.30
57566;DHT22;63999;43.882;-0.310;2022-12-18T00:11:08;6.20;81.20
57566;DHT22;63999;43.882;-0.310;2022-12-18T00:13:35;6.20;81.20
57566;DHT22;63999;43.882;-0.310;2022-12-18T00:16:06;6.20;81.30
57566;DHT22;63999;43.882;-0.310;2022-12-18T00:18:32;6.20;81.30
57566;DHT22;63999;43.882;-0.310;2022-12-18T00:21:04;6.20;81.40
57566;DHT22;63999;43.882;-0.310;2022-12-18T00:23:30;6.20;81.30
57566;DHT22;63999;43.882;-0.310;2022-12-18T00:26:00;6.20;81.50
57566;DHT22;63999;43.882;-0.310;2022-12-18T00:28:26;6.20;81.60
57566;DHT22;63999;43.882;-0.310;2022-12-18T00:31:03;6.20;81.30
57566;DHT22;63999;43.882;-0.310;2022-12-18T00:33:29;6.20;81.60
57566;DHT22;63999;43.882;-0.310;2022-12-18T00:36:03;6.20;81.60
57566;DHT22;63999;43.882;-0.310;2022-12-18T00:38:29;6.20;81.70
57566;DHT22;63999;43.882;-0.310;2022-12-18T00:40:55;6.20;81.70
57566;DHT22;63999;43.882;-0.310;2022-12-18T00:43:21;6.20;81.50
57566;DHT22;63999;43.882;-0.310;2022-12-18T00:45:47;6.20;81.60
57566;DHT22;63999;43.882;-0.310;2022-12-18T00:48:12;6.20;81.70
57566;DHT22;63999;43.882;-0.310;2022-12-18T00:50:38;6.20;81.80
57566;DHT22;63999;43.882;-0.310;2022-12-18T00:53:04;6.20;81.70
57566;DHT22;63999;43.882;-0.310;2022-12-18T00:55:30;6.20;81.70
57566;DHT22;63999;43.882;-0.310;2022-12-18T00:57:56;6.20;81.90
57566;DHT22;63999;43.882;-0.310;2022-12-18T01:00:21;6.20;81.90
57566;DHT22;63999;43.882;-0.310;2022-12-18T01:02:47;6.30;82.00
57566;DHT22;63999;43.882;-0.310;2022-12-18T01:05:14;6.30;81.90
57566;DHT22;63999;43.882;-0.310;2022-12-18T01:07:40;6.30;82.20
57566;DHT22;63999;43.882;-0.310;2022-12-18T01:10:09;6.20;81.80
57566;DHT22;63999;43.882;-0.310;2022-12-18T01:12:36;6.30;81.90
57566;DHT22;63999;43.882;-0.310;2022-12-18T01:15:03;6.30;81.90
57566;DHT22;63999;43.882;-0.310;2022-12-18T01:17:29;6.30;82.10
57566;DHT22;63999;43.882;-0.310;2022-12-18T01:19:54;6.30;82.10
57566;DHT22;63999;43.882;-0.310;2022-12-18T01:22:20;6.30;82.20
57566;DHT22;63999;43.882;-0.310;2022-12-18T01:24:46;6.30;82.10
57566;DHT22;63999;43.882;-0.310;2022-12-18T01:27:12;6.30;82.20
57566;DHT22;63999;43.882;-0.310;2022-12-18T01:29:37;6.30;82.20
57566;DHT22;63999;43.882;-0.310;2022-12-18T01:32:03;6.30;82.20
57566;DHT22;63999;43.882;-0.310;2022-12-18T01:34:29;6.30;82.30
57566;DHT22;63999;43.882;-0.310;2022-12-18T01:36:55;6.30;82.40
57566;DHT22;63999;43.882;-0.310;2022-12-18T01:39:21;6.30;82.40
57566;DHT22;63999;43.882;-0.310;2022-12-18T01:41:47;6.30;82.40
57566;DHT22;63999;43.882;-0.310;2022-12-18T01:45:06;6.30;82.30
57566;DHT22;63999;43.882;-0.310;2022-12-18T01:52:47;6.30;82.40
57566;DHT22;63999;43.882;-0.310;2022-12-18T01:55:17;6.30;82.40
57566;DHT22;63999;43.882;-0.310;2022-12-18T01:57:43;6.30;82.50
57566;DHT22;63999;43.882;-0.310;2022-12-18T02:00:15;6.30;82.40
57566;DHT22;63999;43.882;-0.310;2022-12-18T02:02:43;6.30;82.50
57566;DHT22;63999;43.882;-0.310;2022-12-18T02:05:11;6.30;82.50
57566;DHT22;63999;43.882;-0.310;2022-12-18T02:10:31;6.30;82.40
57566;DHT22;63999;43.882;-0.310;2022-12-18T02:13:14;6.30;82.60
57566;DHT22;63999;43.882;-0.310;2022-12-18T02:15:46;6.30;82.80
57566;DHT22;63999;43.882;-0.310;2022-12-18T02:18:30;6.30;82.60
57566;DHT22;63999;43.882;-0.310;2022-12-18T02:23:56;6.40;82.60
57566;DHT22;63999;43.882;-0.310;2022-12-18T02:29:10;6.40;82.50
57566;DHT22;63999;43.882;-0.310;2022-12-18T02:31:47;6.40;82.70
57566;DHT22;63999;43.882;-0.310;2022-12-18T02:34:13;6.40;82.80
57566;DHT22;63999;43.882;-0.310;2022-12-18T02:36:42;6.40;82.60
57566;DHT22;63999;43.882;-0.310;2022-12-18T02:39:10;6.30;82.60
57566;DHT22;63999;43.882;-0.310;2022-12-18T02:41:37;6.30;82.70
57566;DHT22;63999;43.882;-0.310;2022-12-18T02:44:08;6.30;82.60
57566;DHT22;63999;43.882;-0.310;2022-12-18T02:46:37;6.30;82.80
57566;DHT22;63999;43.882;-0.310;2022-12-18T02:52:05;6.30;82.80
57566;DHT22;63999;43.882;-0.310;2022-12-18T03:00:17;6.30;82.90
57566;DHT22;63999;43.882;-0.310;2022-12-18T03:02:46;6.40;82.80
57566;DHT22;63999;43.882;-0.310;2022-12-18T03:05:23;6.40;82.70
57566;DHT22;63999;43.882;-0.310;2022-12-18T03:08:00;6.30;82.80
57566;DHT22;63999;43.882;-0.310;2022-12-18T03:10:30;6.30;82.80
57566;DHT22;63999;43.882;-0.310;2022-12-18T03:13:09;6.30;82.70
57566;DHT22;63999;43.882;-0.310;2022-12-18T03:15:49;6.40;82.70
57566;DHT22;63999;43.882;-0.310;2022-12-18T03:18:26;6.30;82.90
57566;DHT22;63999;43.882;-0.310;2022-12-18T03:20:58;6.30;82.90
57566;DHT22;63999;43.882;-0.310;2022-12-18T03:23:30;6.30;82.80
57566;DHT22;63999;43.882;-0.310;2022-12-18T03:26:02;6.30;82.80
57566;DHT22;63999;43.882;-0.310;2022-12-18T03:28:35;6.30;82.90
57566;DHT22;63999;43.882;-0.310;2022-12-18T03:31:04;6.30;82.70
57566;DHT22;63999;43.882;-0.310;2022-12-18T03:33:45;6.30;82.90
57566;DHT22;63999;43.882;-0.310;2022-12-18T03:36:12;6.40;82.50
57566;DHT22;63999;43.882;-0.310;2022-12-18T03:38:38;6.30;83.00
57566;DHT22;63999;43.882;-0.310;2022-12-18T03:41:32;6.30;83.00
57566;DHT22;63999;43.882;-0.310;2022-12-18T03:44:30;6.30;82.90
57566;DHT22;63999;43.882;-0.310;2022-12-18T03:47:29;6.30;82.70
57566;DHT22;63999;43.882;-0.310;2022-12-18T03:50:16;6.30;82.70
57566;DHT22;63999;43.882;-0.310;2022-12-18T03:55:11;6.30;83.00
57566;DHT22;63999;43.882;-0.310;2022-12-18T03:57:39;6.30;82.90
57566;DHT22;63999;43.882;-0.310;2022-12-18T04:00:10;6.30;82.90
57566;DHT22;63999;43.882;-0.310;2022-12-18T04:02:38;6.30;82.80
57566;DHT22;63999;43.882;-0.310;2022-12-18T04:05:07;6.30;82.90
57566;DHT22;63999;43.882;-0.310;2022-12-18T04:07:33;6.30;82.80
57566;DHT22;63999;43.882;-0.310;2022-12-18T04:10:00;6.30;82.70
57566;DHT22;63999;43.882;-0.310;2022-12-18T04:12:29;6.30;82.80
57566;DHT22;63999;43.882;-0.310;2022-12-18T04:14:55;6.30;82.90
57566;DHT22;63999;43.882;-0.310;2022-12-18T04:17:21;6.30;82.60
57566;DHT22;63999;43.882;-0.310;2022-12-18T04:19:46;6.30;82.60
57566;DHT22;63999;43.882;-0.310;2022-12-18T04:22:12;6.30;82.90
57566;DHT22;63999;43.882;-0.310;2022-12-18T04:24:38;6.30;82.70
57566;DHT22;63999;43.882;-0.310;2022-12-18T04:27:04;6.30;82.60
57566;DHT22;63999;43.882;-0.310;2022-12-18T04:29:30;6.30;82.60
57566;DHT22;63999;43.882;-0.310;2022-12-18T04:31:55;6.30;82.90
57566;DHT22;63999;43.882;-0.310;2022-12-18T04:34:21;6.30;82.70
57566;DHT22;63999;43.882;-0.310;2022-12-18T04:36:47;6.30;82.70
57566;DHT22;63999;43.882;-0.310;2022-12-18T04:39:13;6.30;82.60
57566;DHT22;63999;43.882;-0.310;2022-12-18T04:41:39;6.30;82.60
57566;DHT22;63999;43.882;-0.310;2022-12-18T04:44:06;6.30;82.80
57566;DHT22;63999;43.882;-0.310;2022-12-18T04:46:32;6.30;82.60
57566;DHT22;63999;43.882;-0.310;2022-12-18T04:48:58;6.30;82.60
57566;DHT22;63999;43.882;-0.310;2022-12-18T04:51:24;6.30;82.80
57566;DHT22;63999;43.882;-0.310;2022-12-18T04:53:49;6.20;82.60
57566;DHT22;63999;43.882;-0.310;2022-12-18T04:56:16;6.20;82.70
57566;DHT22;63999;43.882;-0.310;2022-12-18T04:58:44;6.20;82.40
57566;DHT22;63999;43.882;-0.310;2022-12-18T05:01:11;6.20;82.70
57566;DHT22;63999;43.882;-0.310;2022-12-18T05:03:38;6.20;82.60
57566;DHT22;63999;43.882;-0.310;2022-12-18T05:06:04;6.20;82.70
57566;DHT22;63999;43.882;-0.310;2022-12-18T05:08:30;6.20;82.70
57566;DHT22;63999;43.882;-0.310;2022-12-18T05:11:01;6.20;82.70
57566;DHT22;63999;43.882;-0.310;2022-12-18T05:13:28;6.20;82.60
57566;DHT22;63999;43.882;-0.310;2022-12-18T05:15:54;6.20;82.70
57566;DHT22;63999;43.882;-0.310;2022-12-18T05:18:20;6.20;82.60
57566;DHT22;63999;43.882;-0.310;2022-12-18T05:20:46;6.20;82.70
57566;DHT22;63999;43.882;-0.310;2022-12-18T05:23:12;6.20;82.50
57566;DHT22;63999;43.882;-0.310;2022-12-18T05:25:38;6.20;82.60
57566;DHT22;63999;43.882;-0.310;2022-12-18T05:28:04;6.20;82.50
57566;DHT22;63999;43.882;-0.310;2022-12-18T05:30:30;6.20;82.70
57566;DHT22;63999;43.882;-0.310;2022-12-18T05:32:56;6.20;82.40
57566;DHT22;63999;43.882;-0.310;2022-12-18T05:35:21;6.20;82.50
57566;DHT22;63999;43.882;-0.310;2022-12-18T05:37:47;6.20;82.60
57566;DHT22;63999;43.882;-0.310;2022-12-18T05:40:13;6.20;82.50
57566;DHT22;63999;43.882;-0.310;2022-12-18T05:42:39;6.20;82.60
57566;DHT22;63999;43.882;-0.310;2022-12-18T05:45:05;6.20;82.60
57566;DHT22;63999;43.882;-0.310;2022-12-18T05:47:31;6.20;82.50
57566;DHT22;63999;43.882;-0.310;2022-12-18T05:49:57;6.20;82.50
57566;DHT22;63999;43.882;-0.310;2022-12-18T05:52:23;6.20;82.60
57566;DHT22;63999;43.882;-0.310;2022-12-18T05:54:49;6.20;82.60
57566;DHT22;63999;43.882;-0.310;2022-12-18T05:57:14;6.20;82.60
57566;DHT22;63999;43.882;-0.310;2022-12-18T05:59:40;6.20;82.60
57566;DHT22;63999;43.882;-0.310;2022-12-18T06:02:06;6.20;82.40
57566;DHT22;63999;43.882;-0.310;2022-12-18T06:04:32;6.20;82.20
57566;DHT22;63999;43.882;-0.310;2022-12-18T06:06:58;6.20;82.50
57566;DHT22;63999;43.882;-0.310;2022-12-18T06:09:24;6.20;82.40
57566;DHT22;63999;43.882;-0.310;2022-12-18T06:11:52;6.20;82.50
57566;DHT22;63999;43.882;-0.310;2022-12-18T06:14:18;6.20;82.50
57566;DHT22;63999;43.882;-0.310;2022-12-18T06:16:43;6.20;82.30
57566;DHT22;63999;43.882;-0.310;2022-12-18T06:19:14;6.20;82.30
57566;DHT22;63999;43.882;-0.310;2022-12-18T06:21:40;6.20;82.50
57566;DHT22;63999;43.882;-0.310;2022-12-18T06:24:06;6.20;82.50
57566;DHT22;63999;43.882;-0.310;2022-12-18T06:26:33;6.20;82.40
57566;DHT22;63999;43.882;-0.310;2022-12-18T06:28:59;6.20;82.60
57566;DHT22;63999;43.882;-0.310;2022-12-18T06:31:25;6.20;82.50
57566;DHT22;63999;43.882;-0.310;2022-12-18T06:33:51;6.20;82.50
57566;DHT22;63999;43.882;-0.310;2022-12-18T06:36:17;6.20;82.40
57566;DHT22;63999;43.882;-0.310;2022-12-18T06:38:44;6.20;82.50
57566;DHT22;63999;43.882;-0.310;2022-12-18T06:41:12;6.10;82.50
57566;DHT22;63999;43.882;-0.310;2022-12-18T06:43:38;6.10;82.50
57566;DHT22;63999;43.882;-0.310;2022-12-18T06:46:04;6.10;82.40
57566;DHT22;63999;43.882;-0.310;2022-12-18T06:48:31;6.10;82.50
57566;DHT22;63999;43.882;-0.310;2022-12-18T06:50:57;6.10;82.50
57566;DHT22;63999;43.882;-0.310;2022-12-18T06:53:23;6.10;82.60
57566;DHT22;63999;43.882;-0.310;2022-12-18T06:55:49;6.10;82.50
57566;DHT22;63999;43.882;-0.310;2022-12-18T06:58:15;6.10;82.60
57566;DHT22;63999;43.882;-0.310;2022-12-18T07:00:41;6.10;82.60
57566;DHT22;63999;43.882;-0.310;2022-12-18T07:03:07;6.10;82.60
57566;DHT22;63999;43.882;-0.310;2022-12-18T07:05:33;6.10;82.60
57566;DHT22;63999;43.882;-0.310;2022-12-18T07:07:59;6.10;82.50
57566;DHT22;63999;43.882;-0.310;2022-12-18T07:10:25;6.10;82.60
57566;DHT22;63999;43.882;-0.310;2022-12-18T07:12:50;6.10;82.50
57566;DHT22;63999;43.882;-0.310;2022-12-18T07:15:16;6.10;82.60
57566;DHT22;63999;43.882;-0.310;2022-12-18T07:17:42;6.10;82.30
57566;DHT22;63999;43.882;-0.310;2022-12-18T07:20:09;6.10;82.40
57566;DHT22;63999;43.882;-0.310;2022-12-18T07:22:34;6.10;82.40
57566;DHT22;63999;43.882;-0.310;2022-12-18T07:25:00;6.10;82.60
57566;DHT22;63999;43.882;-0.310;2022-12-18T07:27:26;6.10;82.40
57566;DHT22;63999;43.882;-0.310;2022-12-18T07:29:52;6.10;82.50
57566;DHT22;63999;43.882;-0.310;2022-12-18T07:32:18;6.10;82.40
57566;DHT22;63999;43.882;-0.310;2022-12-18T07:34:45;6.10;82.40
57566;DHT22;63999;43.882;-0.310;2022-12-18T07:37:11;6.10;82.40
57566;DHT22;63999;43.882;-0.310;2022-12-18T07:39:36;6.10;82.40
57566;DHT22;63999;43.882;-0.310;2022-12-18T07:42:02;6.10;82.40
57566;DHT22;63999;43.882;-0.310;2022-12-18T07:44:47;6.10;82.40
57566;DHT22;63999;43.882;-0.310;2022-12-18T07:47:12;6.00;82.40
57566;DHT22;63999;43.882;-0.310;2022-12-18T07:49:38;6.00;82.30
57566;DHT22;63999;43.882;-0.310;2022-12-18T07:52:04;6.10;82.50
57566;DHT22;63999;43.882;-0.310;2022-12-18T07:54:30;6.10;82.40
57566;DHT22;63999;43.882;-0.310;2022-12-18T07:56:55;6.00;82.40
57566;DHT22;63999;43.882;-0.310;2022-12-18T07:59:21;6.00;82.40
57566;DHT22;63999;43.882;-0.310;2022-12-18T08:01:47;6.10;82.40
57566;DHT22;63999;43.882;-0.310;2022-12-18T08:04:12;6.10;82.30
57566;DHT22;63999;43.882;-0.310;2022-12-18T08:06:38;6.10;82.30
57566;DHT22;63999;43.882;-0.310;2022-12-18T08:09:04;6.10;82.40
57566;DHT22;63999;43.882;-0.310;2022-12-18T08:11:35;6.10;82.50
57566;DHT22;63999;43.882;-0.310;2022-12-18T08:14:03;6.10;82.40
57566;DHT22;63999;43.882;-0.310;2022-12-18T08:16:28;6.00;82.50
57566;DHT22;63999;43.882;-0.310;2022-12-18T08:18:55;6.00;82.30
57566;DHT22;63999;43.882;-0.310;2022-12-18T08:21:38;6.00;82.30
57566;DHT22;63999;43.882;-0.310;2022-12-18T08:24:04;6.00;82.20
57566;DHT22;63999;43.882;-0.310;2022-12-18T08:26:31;6.10;82.40
57566;DHT22;63999;43.882;-0.310;2022-12-18T08:28:58;6.00;82.50
57566;DHT22;63999;43.882;-0.310;2022-12-18T08:31:26;6.10;82.60
57566;DHT22;63999;43.882;-0.310;2022-12-18T08:33:53;6.10;82.50
57566;DHT22;63999;43.882;-0.310;2022-12-18T08:36:20;6.10;82.60
57566;DHT22;63999;43.882;-0.310;2022-12-18T08:38:46;6.10;82.50
57566;DHT22;63999;43.882;-0.310;2022-12-18T08:41:14;6.10;82.40
57566;DHT22;63999;43.882;-0.310;2022-12-18T08:43:41;6.10;82.50
57566;DHT22;63999;43.882;-0.310;2022-12-18T08:46:27;6.10;82.50
57566;DHT22;63999;43.882;-0.310;2022-12-18T08:48:54;6.10;82.40
57566;DHT22;63999;43.882;-0.310;2022-12-18T08:51:23;6.10;82.60
57566;DHT22;63999;43.882;-0.310;2022-12-18T08:53:49;6.10;82.60
57566;DHT22;63999;43.882;-0.310;2022-12-18T08:56:15;6.10;82.60
57566;DHT22;63999;43.882;-0.310;2022-12-18T08:58:42;6.20;82.60
57566;DHT22;63999;43.882;-0.310;2022-12-18T09:01:10;6.20;82.40
57566;DHT22;63999;43.882;-0.310;2022-12-18T09:03:37;6.20;82.60
57566;DHT22;63999;43.882;-0.310;2022-12-18T09:06:03;6.20;82.60
57566;DHT22;63999;43.882;-0.310;2022-12-18T09:08:29;6.20;82.50
57566;DHT22;63999;43.882;-0.310;2022-12-18T09:10:55;6.20;82.40
57566;DHT22;63999;43.882;-0.310;2022-12-18T09:13:22;6.20;82.30
57566;DHT22;63999;43.882;-0.310;2022-12-18T09:15:50;6.20;82.60
57566;DHT22;63999;43.882;-0.310;2022-12-18T09:18:17;6.20;82.70
57566;DHT22;63999;43.882;-0.310;2022-12-18T09:20:44;6.20;82.60
57566;DHT22;63999;43.882;-0.310;2022-12-18T09:23:10;6.20;82.70
57566;DHT22;63999;43.882;-0.310;2022-12-18T09:25:37;6.20;82.60
57566;DHT22;63999;43.882;-0.310;2022-12-18T09:28:10;6.20;83.00
57566;DHT22;63999;43.882;-0.310;2022-12-18T09:30:40;6.20;82.80
57566;DHT22;63999;43.882;-0.310;2022-12-18T09:33:07;6.20;83.00
57566;DHT22;63999;43.882;-0.310;2022-12-18T09:35:35;6.30;82.90
57566;DHT22;63999;43.882;-0.310;2022-12-18T09:38:01;6.30;82.80
57566;DHT22;63999;43.882;-0.310;2022-12-18T09:40:31;6.30;83.10
57566;DHT22;63999;43.882;-0.310;2022-12-18T09:43:00;6.30;83.20
57566;DHT22;63999;43.882;-0.310;2022-12-18T09:45:43;6.30;83.10
57566;DHT22;63999;43.882;-0.310;2022-12-18T09:48:40;6.40;83.20
57566;DHT22;63999;43.882;-0.310;2022-12-18T09:51:26;6.40;83.00
57566;DHT22;63999;43.882;-0.310;2022-12-18T09:54:03;6.40;83.40
57566;DHT22;63999;43.882;-0.310;2022-12-18T09:56:37;6.40;83.70
57566;DHT22;63999;43.882;-0.310;2022-12-18T09:59:05;6.50;83.60
57566;DHT22;63999;43.882;-0.310;2022-12-18T10:01:32;6.50;83.70
57566;DHT22;63999;43.882;-0.310;2022-12-18T10:03:59;6.50;83.60
57566;DHT22;63999;43.882;-0.310;2022-12-18T10:12:42;6.60;83.60
57566;DHT22;63999;43.882;-0.310;2022-12-18T10:17:54;6.60;84.00
57566;DHT22;63999;43.882;-0.310;2022-12-18T10:20:25;6.70;83.80
57566;DHT22;63999;43.882;-0.310;2022-12-18T10:23:18;6.70;84.00
57566;DHT22;63999;43.882;-0.310;2022-12-18T10:28:26;6.70;83.90
57566;DHT22;63999;43.882;-0.310;2022-12-18T10:30:54;6.70;83.70
57566;DHT22;63999;43.882;-0.310;2022-12-18T10:33:24;6.80;84.10
57566;DHT22;63999;43.882;-0.310;2022-12-18T10:35:51;6.80;84.00
57566;DHT22;63999;43.882;-0.310;2022-12-18T10:46:21;6.90;83.80
57566;DHT22;63999;43.882;-0.310;2022-12-18T10:48:51;6.90;84.40
57566;DHT22;63999;43.882;-0.310;2022-12-18T10:51:28;7.00;84.10
57566;DHT22;63999;43.882;-0.310;2022-12-18T10:53:59;7.00;84.40
57566;DHT22;63999;43.882;-0.310;2022-12-18T10:56:27;7.00;84.20
57566;DHT22;63999;43.882;-0.310;2022-12-18T10:59:06;7.00;84.30
57566;DHT22;63999;43.882;-0.310;2022-12-18T11:01:53;7.00;84.40
57566;DHT22;63999;43.882;-0.310;2022-12-18T11:04:34;7.00;84.40
57566;DHT22;63999;43.882;-0.310;2022-12-18T11:07:05;7.10;84.40
57566;DHT22;63999;43.882;-0.310;2022-12-18T11:09:34;7.20;84.70
57566;DHT22;63999;43.882;-0.310;2022-12-18T11:12:05;7.20;84.50
57566;DHT22;63999;43.882;-0.310;2022-12-18T11:14:47;7.20;84.70
57566;DHT22;63999;43.882;-0.310;2022-12-18T11:17:22;7.20;84.50
57566;DHT22;63999;43.882;-0.310;2022-12-18T11:19:55;7.20;84.30
57566;DHT22;63999;43.882;-0.310;2022-12-18T11:22:26;7.20;84.60
57566;DHT22;63999;43.882;-0.310;2022-12-18T11:25:04;7.20;84.60
57566;DHT22;63999;43.882;-0.310;2022-12-18T11:27:31;7.30;84.60
57566;DHT22;63999;43.882;-0.310;2022-12-18T11:33:03;7.40;84.60
57566;DHT22;63999;43.882;-0.310;2022-12-18T11:35:47;7.40;84.40
57566;DHT22;63999;43.882;-0.310;2022-12-18T11:38:54;7.40;83.90
57566;DHT22;63999;43.882;-0.310;2022-12-18T11:41:43;7.40;84.60
57566;DHT22;63999;43.882;-0.310;2022-12-18T11:44:53;7.40;84.20
57566;DHT22;63999;43.882;-0.310;2022-12-18T11:50:18;7.50;84.30
57566;DHT22;63999;43.882;-0.310;2022-12-18T11:52:45;7.50;84.50
57566;DHT22;63999;43.882;-0.310;2022-12-18T11:55:27;7.50;84.30
57566;DHT22;63999;43.882;-0.310;2022-12-18T12:00:38;7.60;84.50
57566;DHT22;63999;43.882;-0.310;2022-12-18T12:03:18;7.60;84.50
57566;DHT22;63999;43.882;-0.310;2022-12-18T12:08:33;7.60;84.50
57566;DHT22;63999;43.882;-0.310;2022-12-18T12:17:00;7.60;84.50
57566;DHT22;63999;43.882;-0.310;2022-12-18T12:19:48;7.80;84.70
57566;DHT22;63999;43.882;-0.310;2022-12-18T12:22:43;7.80;84.50
57566;DHT22;63999;43.882;-0.310;2022-12-18T12:28:24;7.80;84.60
57566;DHT22;63999;43.882;-0.310;2022-12-18T12:39:11;7.90;84.40
57566;DHT22;63999;43.882;-0.310;2022-12-18T12:41:40;7.90;84.70
57566;DHT22;63999;43.882;-0.310;2022-12-18T12:44:29;8.00;84.50
57566;DHT22;63999;43.882;-0.310;2022-12-18T12:46:59;8.00;84.40
57566;DHT22;63999;43.882;-0.310;2022-12-18T12:49:29;8.00;84.60
57566;DHT22;63999;43.882;-0.310;2022-12-18T12:52:10;8.00;84.20
57566;DHT22;63999;43.882;-0.310;2022-12-18T12:54:38;8.00;84.50
57566;DHT22;63999;43.882;-0.310;2022-12-18T13:00:04;8.00;84.40
57566;DHT22;63999;43.882;-0.310;2022-12-18T13:02:44;8.00;84.80
57566;DHT22;63999;43.882;-0.310;2022-12-18T13:07:57;8.10;84.80
57566;DHT22;63999;43.882;-0.310;2022-12-18T13:10:32;8.10;84.80
57566;DHT22;63999;43.882;-0.310;2022-12-18T13:13:02;8.20;85.00
57566;DHT22;63999;43.882;-0.310;2022-12-18T13:15:30;8.20;84.70
57566;DHT22;63999;43.882;-0.310;2022-12-18T13:18:23;8.20;84.70
57566;DHT22;63999;43.882;-0.310;2022-12-18T13:28:24;8.20;84.80
57566;DHT22;63999;43.882;-0.310;2022-12-18T13:31:08;8.30;85.00
57566;DHT22;63999;43.882;-0.310;2022-12-18T13:33:43;8.30;84.50
57566;DHT22;63999;43.882;-0.310;2022-12-18T13:36:17;8.30;84.70
57566;DHT22;63999;43.882;-0.310;2022-12-18T13:39:20;8.30;84.70
57566;DHT22;63999;43.882;-0.310;2022-12-18T13:42:31;8.30;84.90
57566;DHT22;63999;43.882;-0.310;2022-12-18T13:44:35;8.40;84.90
57566;DHT22;63999;43.882;-0.310;2022-12-18T13:47:03;8.40;85.00
57566;DHT22;63999;43.882;-0.310;2022-12-18T13:49:36;8.40;84.80
57566;DHT22;63999;43.882;-0.310;2022-12-18T13:52:21;8.40;84.70
57566;DHT22;63999;43.882;-0.310;2022-12-18T13:54:55;8.50;84.70
57566;DHT22;63999;43.882;-0.310;2022-12-18T13:57:33;8.50;84.90
57566;DHT22;63999;43.882;-0.310;2022-12-18T14:02:48;8.60;84.50
57566;DHT22;63999;43.882;-0.310;2022-12-18T14:05:31;8.60;84.90
57566;DHT22;63999;43.882;-0.310;2022-12-18T14:08:05;8.60;84.10
57566;DHT22;63999;43.882;-0.310;2022-12-18T14:10:32;8.60;85.00
57566;DHT22;63999;43.882;-0.310;2022-12-18T14:13:06;8.60;84.90
57566;DHT22;63999;43.882;-0.310;2022-12-18T14:15:41;8.60;84.90
57566;DHT22;63999;43.882;-0.310;2022-12-18T14:18:24;8.60;84.70
57566;DHT22;63999;43.882;-0.310;2022-12-18T14:20:57;8.60;84.70
57566;DHT22;63999;43.882;-0.310;2022-12-18T14:23:41;8.60;84.70
57566;DHT22;63999;43.882;-0.310;2022-12-18T14:26:26;8.60;84.80
57566;DHT22;63999;43.882;-0.310;2022-12-18T14:28:59;8.70;85.00
57566;DHT22;63999;43.882;-0.310;2022-12-18T14:31:30;8.70;85.00
57566;DHT22;63999;43.882;-0.310;2022-12-18T14:33:57;8.80;84.70
57566;DHT22;63999;43.882;-0.310;2022-12-18T14:36:26;8.80;85.10
57566;DHT22;63999;43.882;-0.310;2022-12-18T14:38:55;8.70;84.70
57566;DHT22;63999;43.882;-0.310;2022-12-18T14:41:22;8.80;85.00
57566;DHT22;63999;43.882;-0.310;2022-12-18T14:43:50;8.80;84.70
57566;DHT22;63999;43.882;-0.310;2022-12-18T14:46:35;8.80;85.10
57566;DHT22;63999;43.882;-0.310;2022-12-18T14:49:30;8.90;85.10
57566;DHT22;63999;43.882;-0.310;2022-12-18T14:52:04;8.90;84.60
57566;DHT22;63999;43.882;-0.310;2022-12-18T14:54:31;8.90;84.80
57566;DHT22;63999;43.882;-0.310;2022-12-18T14:57:02;8.90;84.70
57566;DHT22;63999;43.882;-0.310;2022-12-18T14:59:30;8.90;84.80
57566;DHT22;63999;43.882;-0.310;2022-12-18T15:04:37;8.90;84.40
57566;DHT22;63999;43.882;-0.310;2022-12-18T15:07:21;8.90;84.30
57566;DHT22;63999;43.882;-0.310;2022-12-18T15:10:11;8.90;84.30
57566;DHT22;63999;43.882;-0.310;2022-12-18T15:12:49;8.90;84.70
57566;DHT22;63999;43.882;-0.310;2022-12-18T15:18:14;9.00;84.60
57566;DHT22;63999;43.882;-0.310;2022-12-18T15:20:59;9.00;84.70
57566;DHT22;63999;43.882;-0.310;2022-12-18T15:26:09;9.00;84.60
57566;DHT22;63999;43.882;-0.310;2022-12-18T15:28:50;9.00;84.30
57566;DHT22;63999;43.882;-0.310;2022-12-18T15:34:01;9.00;84.40
57566;DHT22;63999;43.882;-0.310;2022-12-18T15:36:29;9.00;84.50
57566;DHT22;63999;43.882;-0.310;2022-12-18T15:38:56;9.00;84.20
57566;DHT22;63999;43.882;-0.310;2022-12-18T15:41:23;9.00;84.20
57566;DHT22;63999;43.882;-0.310;2022-12-18T15:43:51;9.00;84.50
57566;DHT22;63999;43.882;-0.310;2022-12-18T15:46:22;9.00;84.50
57566;DHT22;63999;43.882;-0.310;2022-12-18T15:48:51;9.00;84.50
57566;DHT22;63999;43.882;-0.310;2022-12-18T15:51:22;9.00;84.50
57566;DHT22;63999;43.882;-0.310;2022-12-18T15:53:51;9.00;84.60
57566;DHT22;63999;43.882;-0.310;2022-12-18T15:56:17;9.00;84.40
57566;DHT22;63999;43.882;-0.310;2022-12-18T15:59:12;9.00;84.30
57566;DHT22;63999;43.882;-0.310;2022-12-18T16:01:38;9.00;84.20
57566;DHT22;63999;43.882;-0.310;2022-12-18T16:04:05;9.00;84.00
57566;DHT22;63999;43.882;-0.310;2022-12-18T16:06:35;9.00;84.50
57566;DHT22;63999;43.882;-0.310;2022-12-18T16:09:03;9.10;84.40
57566;DHT22;63999;43.882;-0.310;2022-12-18T16:11:31;9.10;84.20
57566;DHT22;63999;43.882;-0.310;2022-12-18T16:14:18;9.00;84.00
57566;DHT22;63999;43.882;-0.310;2022-12-18T16:16:46;9.00;84.10
57566;DHT22;63999;43.882;-0.310;2022-12-18T16:19:13;9.10;84.20
57566;DHT22;63999;43.882;-0.310;2022-12-18T16:21:39;9.00;84.20
57566;DHT22;63999;43.882;-0.310;2022-12-18T16:24:05;9.00;83.70
57566;DHT22;63999;43.882;-0.310;2022-12-18T16:26:31;9.00;83.80
57566;DHT22;63999;43.882;-0.310;2022-12-18T16:28:56;9.00;84.10
57566;DHT22;63999;43.882;-0.310;2022-12-18T16:31:22;9.00;84.00
57566;DHT22;63999;43.882;-0.310;2022-12-18T16:33:48;9.00;84.30
57566;DHT22;63999;43.882;-0.310;2022-12-18T16:36:14;9.00;84.20
57566;DHT22;63999;43.882;-0.310;2022-12-18T16:38:40;9.00;83.90
57566;DHT22;63999;43.882;-0.310;2022-12-18T16:41:19;9.00;84.00
57566;DHT22;63999;43.882;-0.310;2022-12-18T16:43:56;9.00;83.90
57566;DHT22;63999;43.882;-0.310;2022-12-18T16:46:22;9.00;83.60
57566;DHT22;63999;43.882;-0.310;2022-12-18T16:48:48;9.00;84.10
57566;DHT22;63999;43.882;-0.310;2022-12-18T16:51:14;9.00;84.20
57566;DHT22;63999;43.882;-0.310;2022-12-18T16:53:40;9.00;84.00
57566;DHT22;63999;43.882;-0.310;2022-12-18T16:56:06;9.00;84.00
57566;DHT22;63999;43.882;-0.310;2022-12-18T16:58:32;9.00;84.00
57566;DHT22;63999;43.882;-0.310;2022-12-18T17:00:58;9.00;83.70
57566;DHT22;63999;43.882;-0.310;2022-12-18T17:03:24;9.00;83.90
57566;DHT22;63999;43.882;-0.310;2022-12-18T17:05:53;9.00;83.90
57566;DHT22;63999;43.882;-0.310;2022-12-18T17:08:19;9.00;83.90
57566;DHT22;63999;43.882;-0.310;2022-12-18T17:10:45;9.00;83.70
57566;DHT22;63999;43.882;-0.310;2022-12-18T17:13:10;9.00;83.90
57566;DHT22;63999;43.882;-0.310;2022-12-18T17:15:37;9.00;83.90
57566;DHT22;63999;43.882;-0.310;2022-12-18T17:18:03;9.00;83.70
57566;DHT22;63999;43.882;-0.310;2022-12-18T17:20:34;9.00;83.70
57566;DHT22;63999;43.882;-0.310;2022-12-18T17:23:00;9.00;83.80
57566;DHT22;63999;43.882;-0.310;2022-12-18T17:25:27;9.00;83.90
57566;DHT22;63999;43.882;-0.310;2022-12-18T17:27:54;9.00;83.90
57566;DHT22;63999;43.882;-0.310;2022-12-18T17:30:21;9.00;83.70